Cape Lambert — V7TC9 — position and weather

sailwx.info

Track history (hours):
 
Tides and Currents Weather Stations Pressure Air Temp Water Temp Dewpoint Dewpoint Depression Visibility Wind Speed Wind Dir Waves Ship Positions

Cape Lambert

Last reported at 2014-Dec-19 00:19 UTC. Time now 2014-Dec-20 00:50 UTC.
Position N 38°18' E 121°27'.

Length 290 m; draft 6.5 m.

Type: Cargo ship. MMSI: 538003781.

Date/timePositionNaut miles runAvg speedWind from/ knotsBaromVisibWave heightAir tempDewpointWater temp
2014-Dec-19 00:19N 38°18' E 121°27'810.2
2014-Dec-18 23:33N 38°22' E 121°18'107 7.1
2014-Dec-18 08:33N 39°47' E 119°56'9 8.9
2014-Dec-18 07:33N 39°55' E 119°50'5 4.7
2014-Dec-18 06:33N 39°51' E 119°54'8 8.4
2014-Dec-18 05:33N 39°43' E 119°57'4 3.6
2014-Dec-18 04:34N 39°47' E 119°56'10 9.8
2014-Dec-18 03:33N 39°55' E 119°50'3 3.2
2014-Dec-18 02:31N 39°59' E 119°50'0 0.0
2014-Dec-18 01:31N 39°59' E 119°50'0 0.0
2014-Dec-18 00:31N 39°59' E 119°50'0 0.0
2014-Dec-17 23:31N 39°59' E 119°50'0 0.0
2014-Dec-17 22:31N 39°59' E 119°50'0 0.0
2014-Dec-17 21:31N 39°59' E 119°50'0 0.0
2014-Dec-17 20:31N 39°59' E 119°50'0 0.0
2014-Dec-17 19:31N 39°59' E 119°50'0 0.0
2014-Dec-17 18:31N 39°59' E 119°50'0 0.0
2014-Dec-17 17:31N 39°59' E 119°50'0 0.0
2014-Dec-17 16:31N 39°59' E 119°50'0 0.0
2014-Dec-17 15:31N 39°59' E 119°50'0 0.0
2014-Dec-17 14:31N 39°59' E 119°50'0 0.0
2014-Dec-17 13:31N 39°59' E 119°50'0 0.0
2014-Dec-17 12:31N 39°59' E 119°50'0 0.0
2014-Dec-17 11:32N 39°59' E 119°50'0 0.0
2014-Dec-17 10:31N 39°59' E 119°50'0 0.0
2014-Dec-17 09:31N 39°59' E 119°50'0 0.0
2014-Dec-17 08:25N 39°59' E 119°50'0 0.0
2014-Dec-17 07:31N 39°59' E 119°50'0 0.0
2014-Dec-17 06:31N 39°59' E 119°50'0 0.0
2014-Dec-17 05:31N 39°59' E 119°50'0 0.0
2014-Dec-17 04:31N 39°59' E 119°50'0 0.0
2014-Dec-17 03:31N 39°59' E 119°50'0 0.0
2014-Dec-17 02:31N 39°59' E 119°50'0 0.0
2014-Dec-17 01:31N 39°59' E 119°50'0 0.0
2014-Dec-17 00:31N 39°59' E 119°50'0 0.0
2014-Dec-16 23:31N 39°59' E 119°50'0 0.0
2014-Dec-16 22:31N 39°59' E 119°50'0 0.0
2014-Dec-16 21:31N 39°59' E 119°50'0 0.0
2014-Dec-16 20:31N 39°59' E 119°50'0 0.0
2014-Dec-16 19:31N 39°59' E 119°50'0 0.0
2014-Dec-16 18:25N 39°59' E 119°50'0 0.0
2014-Dec-16 17:31N 39°59' E 119°50'0 0.0
2014-Dec-16 16:31N 39°59' E 119°50'0 0.0
2014-Dec-16 15:31N 39°59' E 119°50'0 0.0
2014-Dec-16 14:19N 39°59' E 119°50'0 0.0
2014-Dec-16 13:31N 39°59' E 119°50'0 0.0
2014-Dec-16 12:31N 39°59' E 119°50'0 0.0
2014-Dec-16 11:31N 39°59' E 119°50'0 0.0
2014-Dec-16 10:31N 39°59' E 119°50'0 0.0
2014-Dec-16 09:31N 39°59' E 119°50'0 0.0
2014-Dec-16 08:31N 39°59' E 119°50'0 0.0
2014-Dec-16 07:31N 39°59' E 119°50'0 0.0
2014-Dec-16 06:31N 39°59' E 119°50'0 0.0
2014-Dec-16 05:25N 39°59' E 119°50'0 0.0
2014-Dec-16 04:19N 39°59' E 119°50'0 0.0
2014-Dec-16 03:31N 39°59' E 119°50'0 0.0
2014-Dec-16 02:31N 39°59' E 119°50'0 0.0
2014-Dec-16 01:07N 39°59' E 119°50'0 0.0
2014-Dec-16 00:07N 39°59' E 119°50'0 0.0
2014-Dec-15 23:19N 39°59' E 119°50'0 0.0
2014-Dec-15 22:25N 39°59' E 119°50'0 0.0
2014-Dec-15 21:31N 39°59' E 119°50'0 0.0
2014-Dec-15 20:31N 39°59' E 119°50'0 0.0
2014-Dec-15 19:31N 39°59' E 119°50'0 0.0
2014-Dec-15 18:31N 39°59' E 119°50'0 0.0
2014-Dec-15 17:31N 39°59' E 119°50'0 0.0
2014-Dec-15 16:31N 39°59' E 119°50'0 0.0
2014-Dec-15 15:31N 39°59' E 119°50'0 0.0
2014-Dec-15 14:25N 39°59' E 119°50'0 0.0
2014-Dec-15 13:31N 39°59' E 119°50'0 0.0
2014-Dec-15 12:31N 39°59' E 119°50'0 0.0
2014-Dec-15 11:31N 39°59' E 119°50'0 0.0
2014-Dec-15 10:31N 39°59' E 119°50'0 0.0
2014-Dec-15 09:31N 39°59' E 119°50'0 0.0
2014-Dec-15 08:31N 39°59' E 119°50'0 0.0
2014-Dec-15 07:31N 39°59' E 119°50'0 0.0
2014-Dec-15 06:31N 39°59' E 119°50'0 0.0
2014-Dec-15 03:33N 39°59' E 119°50'0 0.0
2014-Dec-15 02:33N 39°59' E 119°50'0 0.0
2014-Dec-15 01:27N 39°59' E 119°50'0 0.0
2014-Dec-15 00:33N 39°59' E 119°50'0 0.0
2014-Dec-14 23:33N 39°59' E 119°50'0 0.0
2014-Dec-14 22:33N 39°59' E 119°50'0 0.0
2014-Dec-14 21:33N 39°59' E 119°50'0 0.0
2014-Dec-14 20:33N 39°59' E 119°50'0 0.0
2014-Dec-14 19:33N 39°59' E 119°50'0 0.0
2014-Dec-14 18:33N 39°59' E 119°50'0 0.0
2014-Dec-14 17:33N 39°59' E 119°50'0 0.0
2014-Dec-14 16:33N 39°59' E 119°50'0 0.0
2014-Dec-14 15:33N 39°59' E 119°50'0 0.0
2014-Dec-14 14:33N 39°59' E 119°50'0 0.0
2014-Dec-14 13:33N 39°59' E 119°50'0 0.0
2014-Dec-14 12:33N 39°59' E 119°50'0 0.0
2014-Dec-14 11:33N 39°59' E 119°50'0 0.0
2014-Dec-14 10:33N 39°59' E 119°50'0 0.0
2014-Dec-14 09:33N 39°59' E 119°50'0 0.0
2014-Dec-14 08:33N 39°59' E 119°50'  
2014-Dec-10 09:26N 39°59' E 119°50'0 0.0
2014-Dec-10 08:32N 39°59' E 119°50'0 0.0
2014-Dec-10 07:32N 39°59' E 119°50'0 0.0
2014-Dec-10 06:32N 39°59' E 119°50'0 0.0
2014-Dec-10 05:32N 39°59' E 119°50'  
Track history (hours):
 
Tides and Currents Weather Stations Pressure Air Temp Water Temp Dewpoint Dewpoint Depression Visibility Wind Speed Wind Dir Waves Ship Positions

Cape Lambert

Last reported at 2014-Dec-19 00:19 UTC. Time now 2014-Dec-20 00:50 UTC.
Position N 38°18' E 121°27'.

Length 290 m; draft 6.5 m.

Type: Cargo ship. MMSI: 538003781.

Date/timePositionNaut miles runAvg speedWind from/ knotsBaromVisibWave heightAir tempDewpointWater temp
2014-Dec-19 00:19N 38°18' E 121°27'810.2
2014-Dec-18 23:33N 38°22' E 121°18'107 7.1
2014-Dec-18 08:33N 39°47' E 119°56'9 8.9
2014-Dec-18 07:33N 39°55' E 119°50'5 4.7
2014-Dec-18 06:33N 39°51' E 119°54'8 8.4
2014-Dec-18 05:33N 39°43' E 119°57'4 3.6
2014-Dec-18 04:34N 39°47' E 119°56'10 9.8
2014-Dec-18 03:33N 39°55' E 119°50'3 3.2
2014-Dec-18 02:31N 39°59' E 119°50'0 0.0
2014-Dec-18 01:31N 39°59' E 119°50'0 0.0
2014-Dec-18 00:31N 39°59' E 119°50'0 0.0
2014-Dec-17 23:31N 39°59' E 119°50'0 0.0
2014-Dec-17 22:31N 39°59' E 119°50'0 0.0
2014-Dec-17 21:31N 39°59' E 119°50'0 0.0
2014-Dec-17 20:31N 39°59' E 119°50'0 0.0
2014-Dec-17 19:31N 39°59' E 119°50'0 0.0
2014-Dec-17 18:31N 39°59' E 119°50'0 0.0
2014-Dec-17 17:31N 39°59' E 119°50'0 0.0
2014-Dec-17 16:31N 39°59' E 119°50'0 0.0
2014-Dec-17 15:31N 39°59' E 119°50'0 0.0
2014-Dec-17 14:31N 39°59' E 119°50'0 0.0
2014-Dec-17 13:31N 39°59' E 119°50'0 0.0
2014-Dec-17 12:31N 39°59' E 119°50'0 0.0
2014-Dec-17 11:32N 39°59' E 119°50'0 0.0
2014-Dec-17 10:31N 39°59' E 119°50'0 0.0
2014-Dec-17 09:31N 39°59' E 119°50'0 0.0
2014-Dec-17 08:25N 39°59' E 119°50'0 0.0
2014-Dec-17 07:31N 39°59' E 119°50'0 0.0
2014-Dec-17 06:31N 39°59' E 119°50'0 0.0
2014-Dec-17 05:31N 39°59' E 119°50'0 0.0
2014-Dec-17 04:31N 39°59' E 119°50'0 0.0
2014-Dec-17 03:31N 39°59' E 119°50'0 0.0
2014-Dec-17 02:31N 39°59' E 119°50'0 0.0
2014-Dec-17 01:31N 39°59' E 119°50'0 0.0
2014-Dec-17 00:31N 39°59' E 119°50'0 0.0
2014-Dec-16 23:31N 39°59' E 119°50'0 0.0
2014-Dec-16 22:31N 39°59' E 119°50'0 0.0
2014-Dec-16 21:31N 39°59' E 119°50'0 0.0
2014-Dec-16 20:31N 39°59' E 119°50'0 0.0
2014-Dec-16 19:31N 39°59' E 119°50'0 0.0
2014-Dec-16 18:25N 39°59' E 119°50'0 0.0
2014-Dec-16 17:31N 39°59' E 119°50'0 0.0
2014-Dec-16 16:31N 39°59' E 119°50'0 0.0
2014-Dec-16 15:31N 39°59' E 119°50'0 0.0
2014-Dec-16 14:19N 39°59' E 119°50'0 0.0
2014-Dec-16 13:31N 39°59' E 119°50'0 0.0
2014-Dec-16 12:31N 39°59' E 119°50'0 0.0
2014-Dec-16 11:31N 39°59' E 119°50'0 0.0
2014-Dec-16 10:31N 39°59' E 119°50'0 0.0
2014-Dec-16 09:31N 39°59' E 119°50'0 0.0
2014-Dec-16 08:31N 39°59' E 119°50'0 0.0
2014-Dec-16 07:31N 39°59' E 119°50'0 0.0
2014-Dec-16 06:31N 39°59' E 119°50'0 0.0
2014-Dec-16 05:25N 39°59' E 119°50'0 0.0
2014-Dec-16 04:19N 39°59' E 119°50'0 0.0
2014-Dec-16 03:31N 39°59' E 119°50'0 0.0
2014-Dec-16 02:31N 39°59' E 119°50'0 0.0
2014-Dec-16 01:07N 39°59' E 119°50'0 0.0
2014-Dec-16 00:07N 39°59' E 119°50'0 0.0
2014-Dec-15 23:19N 39°59' E 119°50'0 0.0
2014-Dec-15 22:25N 39°59' E 119°50'0 0.0
2014-Dec-15 21:31N 39°59' E 119°50'0 0.0
2014-Dec-15 20:31N 39°59' E 119°50'0 0.0
2014-Dec-15 19:31N 39°59' E 119°50'0 0.0
2014-Dec-15 18:31N 39°59' E 119°50'0 0.0
2014-Dec-15 17:31N 39°59' E 119°50'0 0.0
2014-Dec-15 16:31N 39°59' E 119°50'0 0.0
2014-Dec-15 15:31N 39°59' E 119°50'0 0.0
2014-Dec-15 14:25N 39°59' E 119°50'0 0.0
2014-Dec-15 13:31N 39°59' E 119°50'0 0.0
2014-Dec-15 12:31N 39°59' E 119°50'0 0.0
2014-Dec-15 11:31N 39°59' E 119°50'0 0.0
2014-Dec-15 10:31N 39°59' E 119°50'0 0.0
2014-Dec-15 09:31N 39°59' E 119°50'0 0.0
2014-Dec-15 08:31N 39°59' E 119°50'0 0.0
2014-Dec-15 07:31N 39°59' E 119°50'0 0.0
2014-Dec-15 06:31N 39°59' E 119°50'0 0.0
2014-Dec-15 03:33N 39°59' E 119°50'0 0.0
2014-Dec-15 02:33N 39°59' E 119°50'0 0.0
2014-Dec-15 01:27N 39°59' E 119°50'0 0.0
2014-Dec-15 00:33N 39°59' E 119°50'0 0.0
2014-Dec-14 23:33N 39°59' E 119°50'0 0.0
2014-Dec-14 22:33N 39°59' E 119°50'0 0.0
2014-Dec-14 21:33N 39°59' E 119°50'0 0.0
2014-Dec-14 20:33N 39°59' E 119°50'0 0.0
2014-Dec-14 19:33N 39°59' E 119°50'0 0.0
2014-Dec-14 18:33N 39°59' E 119°50'0 0.0
2014-Dec-14 17:33N 39°59' E 119°50'0 0.0
2014-Dec-14 16:33N 39°59' E 119°50'0 0.0
2014-Dec-14 15:33N 39°59' E 119°50'0 0.0
2014-Dec-14 14:33N 39°59' E 119°50'0 0.0
2014-Dec-14 13:33N 39°59' E 119°50'0 0.0
2014-Dec-14 12:33N 39°59' E 119°50'0 0.0
2014-Dec-14 11:33N 39°59' E 119°50'0 0.0
2014-Dec-14 10:33N 39°59' E 119°50'0 0.0
2014-Dec-14 09:33N 39°59' E 119°50'0 0.0
2014-Dec-14 08:33N 39°59' E 119°50'  
2014-Dec-10 09:26N 39°59' E 119°50'0 0.0
2014-Dec-10 08:32N 39°59' E 119°50'0 0.0
2014-Dec-10 07:32N 39°59' E 119°50'0 0.0
2014-Dec-10 06:32N 39°59' E 119°50'0 0.0
2014-Dec-10 05:32N 39°59' E 119°50'  

Dump ship's entire track history